Time;durP1;ratioP1;P1;durP2;ratioP2;P2;SDS_P1;SDS_P2;PMS_P1;PMS_P2;Temp;Humidity;BMP_temperature;BMP_pressure;BME280_temperature;BME280_humidity;BME280_pressure;Samples;Min_cycle;Max_cycle;Signal;HPM_P1;HPM_P2
2022/08/14 00:01:53;;;;;;;3.17;2.20;;;24.10;44.40;;;-142.21;39.60;112049.66;5039698;28;20285;-76
2022/08/14 00:04:21;;;;;;;2.40;2.03;;;24.10;44.60;;;-142.21;39.79;112049.66;5028494;28;20310;-76
2022/08/14 00:06:49;;;;;;;3.70;2.20;;;24.10;44.70;;;-142.21;39.66;112049.66;5037698;28;20210;-75
2022/08/14 00:09:16;;;;;;;2.53;2.33;;;24.00;44.60;;;-142.21;39.60;112049.66;5053407;28;20229;-75
2022/08/14 00:11:44;;;;;;;3.87;2.17;;;24.00;44.50;;;-142.21;39.72;112049.66;5041501;28;20659;-74
2022/08/14 00:14:11;;;;;;;2.30;2.10;;;24.00;44.40;;;-142.21;39.91;112049.66;5046284;28;20234;-76
2022/08/14 00:16:38;;;;;;;2.20;2.00;;;24.00;44.80;;;-142.21;39.87;112049.66;5047399;28;20233;-76
2022/08/14 00:19:05;;;;;;;2.70;2.43;;;23.90;44.70;;;-142.21;40.18;112049.66;5046805;28;20212;-74
2022/08/14 00:21:33;;;;;;;2.40;2.20;;;23.90;44.80;;;-142.21;40.63;112049.66;5041934;28;20241;-76
2022/08/14 00:24:03;;;;;;;3.00;2.67;;;23.80;45.10;;;-142.21;40.50;112049.66;5035773;28;20225;-75
2022/08/14 00:26:30;;;;;;;2.50;2.30;;;23.80;45.20;;;-142.21;40.65;112049.66;5040863;28;20642;-75
2022/08/14 00:28:57;;;;;;;2.33;2.13;;;23.80;45.20;;;-142.21;40.19;112049.66;5048837;28;20285;-75
2022/08/14 00:31:26;;;;;;;2.03;1.93;;;23.70;44.90;;;-142.21;40.10;112049.66;5049030;28;20294;-75
2022/08/14 00:33:53;;;;;;;2.37;2.17;;;23.70;44.90;;;-142.21;40.20;112049.66;5036007;28;20759;-75
2022/08/14 00:36:23;;;;;;;2.20;2.00;;;23.80;45.00;;;-142.21;39.66;112049.66;5047933;28;20711;-76
2022/08/14 00:38:50;;;;;;;4.37;2.20;;;23.80;44.70;;;-142.21;39.39;112049.66;5053595;28;20299;-75
2022/08/14 00:41:18;;;;;;;3.17;2.40;;;23.80;44.40;;;-142.21;39.63;112049.66;5039246;28;20260;-74
2022/08/14 00:43:46;;;;;;;2.83;2.27;;;23.80;44.70;;;-142.21;39.82;112049.66;5037303;28;20254;-75
2022/08/14 00:46:14;;;;;;;2.23;2.10;;;23.80;45.50;;;-142.21;39.94;112049.66;5050382;28;20216;-76
2022/08/14 00:48:41;;;;;;;2.67;2.40;;;23.80;44.90;;;-142.21;39.32;112049.66;5068837;28;20205;-76
2022/08/14 00:51:10;;;;;;;2.27;2.07;;;23.90;44.40;;;-142.21;39.42;112049.66;5012224;28;20297;-74
2022/08/14 00:53:39;;;;;;;2.70;2.50;;;23.90;44.50;;;-142.21;39.55;112049.66;5043371;28;20300;-76
2022/08/14 00:56:08;;;;;;;2.43;2.23;;;23.90;44.60;;;-142.21;39.35;112049.66;5036163;28;20205;-76
2022/08/14 00:58:37;;;;;;;2.40;2.20;;;23.90;44.40;;;-142.21;39.12;112049.66;5038059;28;20546;-76
2022/08/14 01:01:08;;;;;;;2.00;1.90;;;23.90;44.20;;;-142.21;39.46;112049.66;5049094;28;20685;-76
2022/08/14 01:03:38;;;;;;;3.43;2.30;;;23.90;44.50;;;-142.21;39.86;112049.66;5047382;28;20226;-76
2022/08/14 01:06:09;;;;;;;2.40;2.20;;;23.90;44.80;;;-142.21;40.01;112049.66;5043847;28;20241;-76
2022/08/14 01:08:38;;;;;;;2.33;2.13;;;23.80;44.80;;;-142.21;40.14;112049.66;5050614;28;20592;-74
2022/08/14 01:11:06;;;;;;;3.13;2.17;;;23.80;45.00;;;-142.21;39.83;112049.66;5039264;28;20292;-74
2022/08/14 01:13:40;;;;;;;2.40;2.20;;;23.80;44.70;;;-142.21;39.96;112049.66;5043830;28;20592;-74
2022/08/14 01:16:11;;;;;;;3.00;2.33;;;23.80;44.70;;;-142.21;39.61;112049.66;5050844;28;20280;-76
2022/08/14 01:21:30;;;;;;;2.57;2.37;;;23.70;44.60;;;-142.21;39.87;112049.66;5051368;28;20253;-77
2022/08/14 01:23:59;;;;;;;3.13;1.90;;;23.70;44.60;;;-142.21;39.87;112049.66;5035364;28;20230;-76
2022/08/14 01:26:27;;;;;;;2.57;2.23;;;23.70;44.60;;;-142.21;39.89;112049.66;5052601;28;20291;-76
2022/08/14 01:28:58;;;;;;;3.37;2.30;;;23.70;44.60;;;-142.21;39.92;112049.66;5053428;28;20634;-76
2022/08/14 01:31:29;;;;;;;2.30;2.10;;;23.70;44.90;;;-142.21;40.10;112049.66;5050053;28;20648;-76
2022/08/14 01:34:02;;;;;;;2.67;2.20;;;23.60;44.90;;;-142.21;40.13;112049.66;5045003;28;20705;-75
2022/08/14 01:36:35;;;;;;;2.70;2.50;;;23.60;44.90;;;-142.21;40.01;112049.66;5036010;28;20281;-76
2022/08/14 01:39:07;;;;;;;2.30;2.10;;;23.60;44.80;;;-142.21;39.94;112049.66;5043784;28;20190;-75
2022/08/14 01:41:37;;;;;;;2.57;2.37;;;23.60;44.80;;;-142.21;40.21;112049.66;5041820;28;20190;-75
2022/08/14 01:44:11;;;;;;;2.70;2.03;;;23.60;45.00;;;-142.21;40.33;112049.66;5037155;28;20344;-75
2022/08/14 01:46:43;;;;;;;2.30;2.10;;;23.50;45.10;;;-142.21;40.86;112049.66;5051958;28;20190;-75
2022/08/14 01:49:14;;;;;;;2.43;2.23;;;23.50;45.40;;;-142.21;40.66;112049.66;5053566;28;20698;-76
2022/08/14 01:51:43;;;;;;;1.93;1.83;;;23.50;45.50;;;-142.21;40.70;112049.66;5048024;28;20201;-76
2022/08/14 01:54:13;;;;;;;2.43;2.23;;;23.40;45.30;;;-142.21;40.83;112049.66;5051268;28;20198;-76
2022/08/14 01:56:43;;;;;;;2.23;2.03;;;23.40;45.40;;;-142.21;40.84;112049.66;5050601;28;20297;-76
2022/08/14 01:59:20;;;;;;;2.30;2.10;;;23.40;45.30;;;-142.21;40.76;112049.66;5033801;28;20204;-75
2022/08/14 02:01:50;;;;;;;2.43;2.23;;;23.40;45.40;;;-142.21;40.70;112049.66;5025935;28;20198;-75
2022/08/14 02:04:19;;;;;;;2.30;2.10;;;23.30;45.30;;;-142.21;40.82;112049.66;5051914;28;20233;-76
2022/08/14 02:06:49;;;;;;;2.60;2.40;;;23.30;45.40;;;-142.21;40.80;112049.66;5038555;28;20210;-75
2022/08/14 02:09:20;;;;;;;3.30;3.00;;;23.30;45.50;;;-142.21;40.62;112049.66;5038387;28;20192;-76
2022/08/14 02:11:49;;;;;;;2.60;2.40;;;23.20;45.30;;;-142.21;40.53;112049.66;5051054;28;20192;-75
2022/08/14 02:14:16;;;;;;;5.03;2.43;;;23.20;45.10;;;-142.21;40.44;112049.66;5035791;28;20212;-75
2022/08/14 02:16:51;;;;;;;3.23;2.10;;;23.20;45.00;;;-142.21;40.60;112049.66;5017712;28;20194;-75
2022/08/14 02:19:21;;;;;;;3.20;2.20;;;23.20;45.30;;;-142.21;40.34;112049.66;5051962;28;20225;-75
2022/08/14 02:21:53;;;;;;;2.40;2.20;;;23.20;45.20;;;-142.21;40.43;112049.66;5051693;28;20205;-75
2022/08/14 02:24:26;;;;;;;2.40;2.20;;;23.30;45.20;;;-142.21;40.51;112049.66;5052273;28;20319;-75
2022/08/14 02:26:53;;;;;;;2.27;2.07;;;23.30;45.30;;;-142.21;40.53;112049.66;5043509;28;20219;-75
2022/08/14 02:29:27;;;;;;;2.40;2.20;;;23.20;45.30;;;-142.21;40.46;112049.66;5051805;28;20231;-76
2022/08/14 02:31:57;;;;;;;2.50;2.30;;;23.20;45.30;;;-142.21;40.69;112049.66;5042511;28;20307;-75
2022/08/14 02:34:28;;;;;;;2.53;2.20;;;23.20;45.40;;;-142.21;40.90;112049.66;5046731;28;20230;-75
2022/08/14 02:37:01;;;;;;;3.57;2.10;;;23.20;45.60;;;-142.21;40.97;112049.66;5044998;28;20208;-75
2022/08/14 02:39:30;;;;;;;2.43;2.23;;;23.20;45.60;;;-142.21;41.17;112049.66;5033807;28;20217;-75
2022/08/14 02:41:58;;;;;;;2.80;2.50;;;23.20;45.60;;;-142.21;40.82;112049.66;5035842;28;20210;-75
2022/08/14 02:44:26;;;;;;;3.17;2.40;;;23.10;45.30;;;-142.21;40.88;112049.66;5049502;28;20228;-75
2022/08/14 02:46:56;;;;;;;2.60;2.40;;;23.10;45.50;;;-142.21;41.14;112049.66;5052289;28;20662;-74
2022/08/14 02:49:28;;;;;;;2.20;2.00;;;23.10;45.60;;;-142.21;41.32;112049.66;5036401;28;20202;-75
2022/08/14 02:51:58;;;;;;;2.30;2.10;;;23.10;46.50;;;-142.21;41.56;112049.66;5040503;28;20280;-75
2022/08/14 02:54:28;;;;;;;2.30;2.10;;;23.10;46.10;;;-142.21;41.65;112049.66;5045123;28;20186;-75
2022/08/14 02:56:58;;;;;;;2.10;1.90;;;23.00;46.00;;;-142.21;41.57;112049.66;5042876;28;20273;-75
2022/08/14 02:59:30;;;;;;;3.00;2.67;;;23.00;46.10;;;-142.21;41.78;112049.66;5047438;28;20191;-76
2022/08/14 03:01:57;;;;;;;2.83;2.20;;;22.90;46.20;;;-142.21;41.95;112049.66;5038782;28;20195;-76
2022/08/14 03:04:27;;;;;;;2.43;2.13;;;22.90;46.20;;;-142.21;41.96;112049.66;5052587;28;20257;-76
2022/08/14 03:06:56;;;;;;;2.00;1.90;;;22.90;46.30;;;-142.21;42.03;112049.66;5055036;28;20194;-75
2022/08/14 03:09:26;;;;;;;4.20;2.40;;;22.90;46.20;;;-142.21;41.86;112049.66;5074119;28;20194;-76
2022/08/14 03:11:54;;;;;;;2.83;2.57;;;22.90;46.20;;;-142.21;41.76;112049.66;5070385;28;20205;-76
2022/08/14 03:14:24;;;;;;;2.97;2.20;;;22.80;46.10;;;-142.21;42.28;112049.66;5053516;28;20210;-75
2022/08/14 03:16:52;;;;;;;2.70;2.27;;;22.80;46.40;;;-142.21;42.76;112049.66;5052001;28;20190;-75
2022/08/14 03:19:19;;;;;;;2.80;2.60;;;22.80;46.70;;;-142.21;42.95;112049.66;5051535;28;20293;-76
2022/08/14 03:21:47;;;;;;;2.50;2.30;;;22.70;46.90;;;-142.21;43.36;112049.66;5047896;28;20750;-75
2022/08/14 03:24:16;;;;;;;2.90;2.30;;;22.70;47.00;;;-142.21;43.76;112049.66;5052277;28;20638;-76
2022/08/14 03:26:46;;;;;;;2.67;2.47;;;22.60;47.00;;;-142.21;43.96;112049.66;5051462;28;20202;-75
2022/08/14 03:29:18;;;;;;;3.03;2.27;;;22.60;47.40;;;-142.21;43.94;112049.66;5047217;28;20198;-75
2022/08/14 03:31:50;;;;;;;2.70;2.50;;;22.50;47.30;;;-142.21;43.74;112049.66;5041826;28;20191;-76
2022/08/14 03:34:21;;;;;;;3.30;2.13;;;22.50;47.00;;;-142.21;43.55;112049.66;5050127;28;20268;-76
2022/08/14 03:36:50;;;;;;;2.30;2.20;;;22.40;47.00;;;-142.21;43.49;112049.66;5047444;28;20190;-75
2022/08/14 03:39:20;;;;;;;2.73;2.50;;;22.40;47.00;;;-142.21;43.57;112049.66;5038339;28;20206;-76
2022/08/14 03:41:52;;;;;;;2.90;2.60;;;22.40;47.20;;;-142.21;43.81;112049.66;5081561;28;20290;-74
2022/08/14 03:44:19;;;;;;;2.43;2.23;;;22.30;47.30;;;-142.21;43.81;112049.66;5041191;28;20309;-76
2022/08/14 03:46:46;;;;;;;3.83;2.73;;;22.30;47.30;;;-142.21;43.91;112049.66;5054294;28;20197;-75
2022/08/14 03:49:17;;;;;;;2.60;2.40;;;22.30;47.40;;;-142.21;44.28;112049.66;5041794;28;20299;-75
2022/08/14 03:51:44;;;;;;;2.27;2.07;;;22.30;47.60;;;-142.21;44.64;112049.66;5044595;28;20279;-75
2022/08/14 03:54:12;;;;;;;2.80;2.60;;;22.30;47.70;;;-142.21;44.69;112049.66;5053206;28;20208;-75
2022/08/14 03:56:43;;;;;;;2.33;2.13;;;22.20;47.70;;;-142.21;44.79;112049.66;5037130;28;20195;-74
2022/08/14 03:59:12;;;;;;;3.20;2.77;;;22.20;47.80;;;-142.21;44.99;112049.66;5050170;28;20202;-76
2022/08/14 04:01:41;;;;;;;2.40;2.20;;;22.20;47.90;;;-142.21;45.09;112049.66;5046857;28;20245;-75
2022/08/14 04:04:09;;;;;;;2.60;2.40;;;22.20;48.10;;;-142.21;45.68;112049.66;5051879;28;20329;-74
2022/08/14 04:06:37;;;;;;;3.00;2.33;;;22.20;48.30;;;-142.21;45.90;112049.66;5044453;28;20202;-75
2022/08/14 04:09:06;;;;;;;4.27;2.90;;;22.10;48.40;;;-142.21;46.83;112049.66;5046019;28;20241;-75
2022/08/14 04:11:35;;;;;;;3.00;2.60;;;22.10;48.80;;;-142.21;48.10;112049.66;5041999;28;20205;-75
2022/08/14 04:14:04;;;;;;;5.03;2.80;;;22.00;49.40;;;-142.21;47.96;112049.66;5055681;28;20238;-75
2022/08/14 04:16:32;;;;;;;3.13;2.40;;;22.00;49.40;;;-142.21;47.40;112049.66;5051696;28;20380;-76
2022/08/14 04:19:03;;;;;;;7.20;2.50;;;22.00;49.20;;;-142.21;47.73;112049.66;5042260;28;20614;-74
2022/08/14 04:21:31;;;;;;;5.80;3.57;;;21.90;49.20;;;-142.21;47.28;112049.66;5049024;28;20634;-73
2022/08/14 04:24:01;;;;;;;3.67;2.50;;;21.90;49.20;;;-142.21;48.96;112049.66;5048826;28;20201;-76
2022/08/14 04:26:30;;;;;;;3.23;2.80;;;21.90;49.80;;;-142.21;50.10;112049.66;5038270;28;20222;-75
2022/08/14 04:28:59;;;;;;;5.90;2.77;;;21.90;50.40;;;-142.21;51.20;112049.66;5054548;28;20205;-75
2022/08/14 04:31:28;;;;;;;3.33;2.53;;;21.90;50.70;;;-142.21;52.56;112049.66;5046903;28;20249;-74
2022/08/14 04:33:55;;;;;;;3.20;2.90;;;21.90;51.20;;;-142.21;51.46;112049.66;5047800;28;20253;-76
2022/08/14 04:36:22;;;;;;;3.73;3.00;;;21.90;50.80;;;-142.21;52.10;112049.66;5048960;28;20230;-74
2022/08/14 04:44:19;;;;;;;5.37;3.47;;;21.90;51.30;;;-142.21;51.38;112049.66;5049092;28;20205;-74
2022/08/14 04:49:29;;;;;;;4.13;3.43;;;21.80;50.80;;;-142.21;52.25;112049.66;5040029;28;20281;-74
2022/08/14 04:51:56;;;;;;;6.80;2.90;;;21.90;51.10;;;-142.21;49.75;112049.66;5047099;28;20289;-74
2022/08/14 04:54:25;;;;;;;7.83;3.60;;;21.90;50.30;;;-142.21;51.71;112049.66;5044171;28;20238;-74
2022/08/14 04:56:53;;;;;;;4.93;2.90;;;21.90;51.10;;;-142.21;49.44;112049.66;5047016;28;20232;-75
2022/08/14 04:59:22;;;;;;;3.60;2.53;;;22.00;50.20;;;-142.21;48.65;112049.66;5052776;28;20213;-76
2022/08/14 05:01:52;;;;;;;4.17;3.00;;;22.00;50.00;;;-142.21;49.39;112049.66;5048335;28;20289;-75
2022/08/14 05:04:20;;;;;;;3.50;2.60;;;22.00;50.20;;;-142.21;49.13;112049.66;5047264;28;20678;-75
2022/08/14 05:06:49;;;;;;;4.97;2.50;;;22.00;50.70;;;-142.21;48.86;112049.66;5049674;28;20255;-75
2022/08/14 05:09:16;;;;;;;2.70;2.50;;;22.00;49.90;;;-142.21;49.49;112049.66;5054172;28;20209;-75
2022/08/14 05:11:44;;;;;;;3.00;2.70;;;22.00;50.00;;;-142.21;49.98;112049.66;5053709;28;20233;-75
2022/08/14 05:14:12;;;;;;;4.97;2.83;;;22.00;50.30;;;-142.21;52.39;112049.66;5053904;28;20245;-75
2022/08/14 05:16:39;;;;;;;3.97;2.50;;;22.00;51.10;;;-142.21;51.74;112049.66;5037176;28;20229;-75
2022/08/14 05:19:12;;;;;;;3.00;2.77;;;22.00;50.90;;;-142.21;51.89;112049.66;5053205;28;20267;-75
2022/08/14 05:21:40;;;;;;;3.83;2.63;;;22.00;50.70;;;-142.21;53.14;112049.66;5042701;28;20230;-74
2022/08/14 05:24:10;;;;;;;2.90;2.60;;;22.10;51.50;;;-142.21;52.93;112049.66;5039719;28;20234;-74
2022/08/14 05:26:43;;;;;;;3.50;2.67;;;22.10;51.50;;;-142.21;53.53;112049.66;5048737;28;20609;-76
2022/08/14 05:29:10;;;;;;;3.23;2.40;;;22.20;51.70;;;-142.21;53.54;112049.66;5046876;28;20282;-76
2022/08/14 05:31:38;;;;;;;3.37;2.53;;;22.20;51.70;;;-142.21;53.58;112049.66;5050962;28;20663;-76
2022/08/14 05:34:07;;;;;;;2.70;2.50;;;22.20;51.80;;;-142.21;55.04;112049.66;5051611;28;20225;-76
2022/08/14 05:36:36;;;;;;;4.10;2.63;;;22.20;52.20;;;-142.21;54.40;112049.66;5038564;28;20194;-76
2022/08/14 05:39:06;;;;;;;3.07;2.80;;;22.20;51.90;;;-142.21;55.04;112049.66;5054347;28;20246;-74
2022/08/14 05:41:33;;;;;;;3.20;2.73;;;22.30;52.20;;;-142.21;55.60;112049.66;5052565;28;20205;-76
2022/08/14 05:44:01;;;;;;;3.10;2.80;;;22.30;52.40;;;-142.21;54.98;112049.66;5047674;28;20241;-75
2022/08/14 05:46:28;;;;;;;2.90;2.70;;;22.30;52.10;;;-142.21;56.04;112049.66;5051018;28;20230;-75
2022/08/14 05:48:58;;;;;;;2.90;2.63;;;22.40;52.40;;;-142.21;55.44;112049.66;5038387;28;20233;-76
2022/08/14 05:51:28;;;;;;;3.20;2.90;;;22.50;52.30;;;-142.21;54.75;112049.66;5081647;28;20202;-75
2022/08/14 05:53:56;;;;;;;5.00;2.80;;;22.50;52.00;;;-142.21;54.63;112049.66;5038542;28;20193;-75
2022/08/14 05:56:25;;;;;;;4.03;3.03;;;22.60;52.00;;;-142.21;54.54;112049.66;5049760;28;20198;-76
2022/08/14 05:58:53;;;;;;;8.87;2.97;;;22.70;52.00;;;-142.21;54.28;112049.66;5033471;28;20229;-75
2022/08/14 06:01:20;;;;;;;3.80;2.77;;;22.70;51.80;;;-142.21;53.85;112049.66;5043164;28;20700;-76
2022/08/14 06:03:50;;;;;;;3.10;2.80;;;22.80;51.80;;;-142.21;55.02;112049.66;5052232;28;20321;-76
2022/08/14 06:06:18;;;;;;;4.47;3.17;;;22.80;52.00;;;-142.21;55.62;112049.66;5053218;28;20267;-76
2022/08/14 06:08:47;;;;;;;3.27;2.97;;;22.90;52.30;;;-142.21;55.34;112049.66;5051924;28;20229;-76
2022/08/14 06:11:15;;;;;;;3.13;2.93;;;23.00;52.20;;;-142.21;56.83;112049.66;5053814;28;20237;-75
2022/08/14 06:13:43;;;;;;;2.87;2.67;;;23.10;52.70;;;-142.21;57.43;112049.66;5049010;28;20205;-75
2022/08/14 06:16:11;;;;;;;5.93;3.27;;;23.10;52.80;;;-142.21;57.17;112049.66;5052104;28;20277;-76
2022/08/14 06:18:39;;;;;;;3.53;3.23;;;23.20;52.90;;;-142.21;57.33;112049.66;5037048;28;20261;-76
2022/08/14 06:21:08;;;;;;;3.20;2.90;;;23.30;52.90;;;-142.21;55.64;112049.66;5077175;28;20202;-75
2022/08/14 06:23:35;;;;;;;4.87;3.13;;;23.30;52.50;;;-142.21;56.11;112049.66;5053708;28;20285;-75
2022/08/14 06:26:04;;;;;;;4.37;3.23;;;23.50;52.60;;;-142.21;54.90;112049.66;5053316;28;20632;-75
2022/08/14 06:28:31;;;;;;;4.17;3.27;;;23.50;52.30;;;-142.21;54.72;112049.66;5053876;28;20233;-77
2022/08/14 06:30:58;;;;;;;4.10;3.40;;;23.70;52.20;;;-142.21;54.88;112049.66;5053565;28;20205;-76
2022/08/14 06:33:26;;;;;;;3.50;3.20;;;23.70;52.10;;;-142.21;54.67;112049.66;5043125;28;20225;-76
2022/08/14 06:35:53;;;;;;;4.70;3.13;;;23.80;52.00;;;-142.21;53.73;112049.66;5035873;28;20256;-76
2022/08/14 06:38:23;;;;;;;3.40;3.10;;;23.90;52.00;;;-142.21;51.99;112049.66;5054083;28;20285;-76
2022/08/14 06:40:52;;;;;;;3.40;3.10;;;24.00;51.40;;;-142.21;52.44;112049.66;5067168;28;20208;-76
2022/08/14 06:43:22;;;;;;;3.40;3.10;;;24.10;51.50;;;-142.21;52.10;112049.66;5072348;28;20257;-77
2022/08/14 06:45:50;;;;;;;4.00;3.07;;;24.20;51.50;;;-142.21;52.74;112049.66;5059452;28;20286;-78
2022/08/14 06:48:21;;;;;;;3.80;3.50;;;24.20;51.40;;;-142.21;51.01;112049.66;5051258;28;20209;-78
2022/08/14 06:50:51;;;;;;;4.50;3.67;;;24.40;51.10;;;-142.21;51.34;112049.66;5034881;28;20213;-77
2022/08/14 06:53:20;;;;;;;4.47;3.27;;;24.40;51.10;;;-142.21;51.33;112049.66;5052985;28;20248;-77
2022/08/14 06:55:49;;;;;;;3.63;3.23;;;24.60;51.10;;;-142.21;50.63;112049.66;5052261;28;20198;-76
2022/08/14 06:58:21;;;;;;;4.07;3.57;;;24.70;50.90;;;-142.21;50.81;112049.66;5038379;28;20280;-75
2022/08/14 07:06:20;;;;;;;7.37;3.70;;;24.90;49.80;;;-142.21;47.99;112049.66;5039146;28;20224;-75
2022/08/14 07:08:47;;;;;;;3.80;3.50;;;25.00;49.70;;;-142.21;48.01;112049.66;5051319;28;20193;-75
2022/08/14 07:11:14;;;;;;;3.37;3.03;;;25.20;50.40;;;-142.21;48.20;112049.66;5052815;28;20201;-75
2022/08/14 07:13:43;;;;;;;3.67;3.37;;;25.30;49.80;;;-142.21;48.13;112049.66;5050324;28;20289;-76
2022/08/14 07:16:11;;;;;;;4.53;3.33;;;25.30;49.60;;;-142.21;48.22;112049.66;5050950;28;20197;-75
2022/08/14 07:18:41;;;;;;;3.80;3.50;;;25.40;49.60;;;-142.21;47.11;112049.66;5052170;28;20662;-76
2022/08/14 07:21:10;;;;;;;4.10;3.33;;;25.50;49.20;;;-142.21;47.72;112049.66;5051541;28;20650;-75
2022/08/14 07:23:38;;;;;;;3.90;3.60;;;25.60;49.30;;;-142.21;47.29;112049.66;5050773;28;20550;-73
2022/08/14 07:26:07;;;;;;;3.67;3.37;;;25.70;49.30;;;-142.21;46.63;112049.66;5051634;28;20230;-76
2022/08/14 07:28:38;;;;;;;3.70;3.40;;;25.80;49.00;;;-142.21;47.14;112049.66;5052213;28;20216;-76
2022/08/14 07:31:10;;;;;;;3.60;3.30;;;25.90;49.20;;;-142.21;46.32;112049.66;5051685;28;20193;-74
2022/08/14 07:33:42;;;;;;;3.43;3.13;;;26.00;48.70;;;-142.21;45.54;112049.66;5052271;28;20221;-77
2022/08/14 07:36:14;;;;;;;3.53;3.23;;;26.20;48.50;;;-142.21;44.81;112049.66;5035667;28;20205;-74
2022/08/14 07:38:42;;;;;;;3.00;2.70;;;26.20;48.10;;;-142.21;44.31;112049.66;5052385;28;20664;-76
2022/08/14 07:41:12;;;;;;;3.13;2.80;;;26.30;47.90;;;-142.21;43.99;112049.66;5051574;28;20363;-75
2022/08/14 07:43:40;;;;;;;3.20;2.90;;;26.50;47.50;;;-142.21;42.62;112049.66;5054322;28;20225;-78
2022/08/14 07:46:09;;;;;;;3.13;2.83;;;26.60;46.90;;;-142.21;42.71;112049.66;5032684;28;20221;-77
2022/08/14 07:48:42;;;;;;;3.17;2.87;;;26.70;46.80;;;-142.21;42.15;112049.66;5052172;28;20290;-75
2022/08/14 07:51:10;;;;;;;3.33;3.03;;;26.90;46.30;;;-142.21;41.16;112049.66;5065488;28;20210;-74
2022/08/14 07:53:38;;;;;;;3.30;3.10;;;27.00;45.80;;;-142.21;40.07;112049.66;5050611;28;20222;-76
2022/08/14 07:56:05;;;;;;;3.50;3.00;;;27.10;45.40;;;-142.21;41.21;112049.66;5051558;28;20309;-76
2022/08/14 07:58:33;;;;;;;3.07;2.70;;;27.20;45.80;;;-142.21;40.87;112049.66;5049654;28;20309;-78
2022/08/14 08:01:01;;;;;;;3.10;2.90;;;27.30;45.60;;;-142.21;40.58;112049.66;5051768;28;20210;-76
2022/08/14 08:03:34;;;;;;;4.40;3.50;;;27.40;45.20;;;-142.21;40.21;112049.66;5049873;28;20230;-76
2022/08/14 08:06:02;;;;;;;3.03;2.73;;;27.50;45.20;;;-142.21;40.70;112049.66;5051476;28;20210;-75
2022/08/14 08:08:31;;;;;;;3.13;2.60;;;27.60;45.20;;;-142.21;39.25;112049.66;5052132;28;20300;-77
2022/08/14 08:11:01;;;;;;;3.17;2.63;;;27.70;44.30;;;-142.21;39.47;112049.66;5051653;28;20301;-77
2022/08/14 08:13:33;;;;;;;3.10;2.90;;;27.90;44.50;;;-142.21;38.63;112049.66;5050995;28;20278;-77
2022/08/14 08:16:02;;;;;;;3.30;3.00;;;28.00;44.10;;;-142.21;37.85;112049.66;5033012;28;20522;-76
2022/08/14 08:18:30;;;;;;;2.97;2.67;;;28.10;43.50;;;-142.21;37.89;112049.66;5052015;28;20212;-76
2022/08/14 08:20:58;;;;;;;4.00;2.80;;;28.20;43.40;;;-142.21;38.71;112049.66;5050896;28;20282;-78
2022/08/14 08:23:28;;;;;;;3.00;2.80;;;28.20;43.70;;;-142.21;38.55;112049.66;5051586;28;20210;-76
2022/08/14 08:25:57;;;;;;;3.00;2.80;;;28.40;43.50;;;-142.21;38.15;112049.66;5051586;28;20259;-78
2022/08/14 08:28:27;;;;;;;2.30;2.10;;;28.50;43.50;;;-142.21;36.81;112049.66;5053717;28;20224;-76
2022/08/14 08:30:57;;;;;;;2.33;2.20;;;28.60;42.50;;;-142.21;35.49;112049.66;5054597;28;20215;-77
2022/08/14 08:33:27;;;;;;;2.97;2.73;;;28.70;41.30;;;-142.21;35.83;112049.66;5055081;28;20208;-77
2022/08/14 08:36:02;;;;;;;2.97;2.73;;;28.80;41.20;;;-142.21;35.93;112049.66;5054671;28;20238;-77
2022/08/14 08:38:29;;;;;;;2.70;2.50;;;29.00;41.20;;;-142.21;35.10;112049.66;5061508;28;20231;-79
2022/08/14 08:40:59;;;;;;;2.50;2.30;;;29.10;40.60;;;-142.21;35.94;112049.66;5052963;28;20237;-78
2022/08/14 08:43:29;;;;;;;2.33;2.20;;;29.20;41.10;;;-142.21;35.90;112049.66;5054728;28;20203;-77
2022/08/14 08:45:59;;;;;;;2.40;2.20;;;29.30;41.20;;;-142.21;36.11;112049.66;5054271;28;20664;-78
2022/08/14 08:48:29;;;;;;;2.63;2.30;;;29.50;41.20;;;-142.21;35.09;112049.66;5054068;28;20259;-77
2022/08/14 08:51:01;;;;;;;2.20;2.00;;;29.60;40.40;;;-142.21;34.59;112049.66;5053797;28;20213;-75
2022/08/14 08:53:33;;;;;;;2.40;2.20;;;29.70;40.00;;;-142.21;34.91;112049.66;5056243;28;20204;-76
2022/08/14 08:56:01;;;;;;;4.23;2.40;;;29.90;40.70;;;-142.21;33.33;112049.66;5035536;28;20620;-78
2022/08/14 08:58:29;;;;;;;2.30;2.10;;;30.00;38.50;;;-142.21;32.96;112049.66;5053981;28;20240;-78
2022/08/14 09:01:00;;;;;;;2.53;2.30;;;30.00;38.30;;;-142.21;33.59;112049.66;5054086;28;20296;-78
2022/08/14 09:03:31;;;;;;;3.13;2.13;;;30.20;38.60;;;-142.21;33.46;112049.66;5053499;28;20209;-78
2022/08/14 09:06:02;;;;;;;2.63;2.20;;;30.30;38.40;;;-142.21;33.53;112049.66;5050881;28;20217;-74
2022/08/14 09:08:32;;;;;;;3.53;2.40;;;30.40;38.40;;;-142.21;34.02;112049.66;5051214;28;20234;-76
2022/08/14 09:11:03;;;;;;;2.03;1.93;;;30.50;38.70;;;-142.21;32.99;112049.66;5052854;28;20201;-78
2022/08/14 09:13:31;;;;;;;2.13;1.93;;;30.60;38.00;;;-142.21;32.97;112049.66;5053102;28;20240;-79
2022/08/14 09:16:00;;;;;;;2.40;2.17;;;30.80;38.00;;;-142.21;32.41;112049.66;5053391;28;20210;-75
2022/08/14 09:18:28;;;;;;;3.00;2.30;;;30.90;37.30;;;-142.21;31.70;112049.66;5026273;28;20226;-76
2022/08/14 09:20:58;;;;;;;2.83;2.10;;;31.00;36.60;;;-142.21;31.80;112049.66;5038676;28;20197;-78
2022/08/14 09:23:27;;;;;;;2.30;2.10;;;31.10;36.60;;;-142.21;31.71;112049.66;5073674;28;20229;-75
2022/08/14 09:25:54;;;;;;;2.63;2.20;;;31.20;36.50;;;-142.21;32.79;112049.66;5069578;28;20311;-78
2022/08/14 09:28:22;;;;;;;2.70;2.27;;;31.20;37.10;;;-142.21;32.68;112049.66;5052622;28;20255;-69
2022/08/14 09:30:54;;;;;;;2.30;2.10;;;31.40;37.30;;;-142.21;31.04;112049.66;5047796;28;20308;-77
2022/08/14 09:33:52;;;;;;;2.37;2.17;;;31.50;35.90;;;-142.21;31.09;112049.66;5053707;28;20182;-75
2022/08/14 09:36:49;;;;;;;2.33;2.07;;;31.70;35.10;;;-142.21;31.59;112049.66;5033709;28;20228;-75
2022/08/14 09:39:38;;;;;;;2.20;2.10;;;31.70;35.60;;;-142.21;30.94;112049.66;5052546;28;20225;-75
2022/08/14 09:42:43;;;;;;;3.13;2.00;;;31.80;35.20;;;-142.21;30.47;112049.66;5036240;28;20255;-75
2022/08/14 09:45:17;;;;;;;2.63;2.43;;;31.90;34.30;;;-142.21;30.41;112049.66;5052520;28;20283;-76
2022/08/14 09:47:49;;;;;;;2.30;2.17;;;32.10;34.90;;;-142.21;30.33;112049.66;5053733;28;20280;-75
2022/08/14 09:50:21;;;;;;;2.40;2.20;;;32.10;34.70;;;-142.21;30.99;112049.66;5054060;28;20244;-75
2022/08/14 09:52:55;;;;;;;2.00;1.90;;;32.30;35.00;;;-142.21;28.82;112049.66;5053771;28;20198;-74
2022/08/14 09:55:31;;;;;;;2.40;2.20;;;32.40;32.80;;;-142.21;28.66;112049.66;5018461;28;20204;-76
2022/08/14 09:58:12;;;;;;;2.10;1.90;;;32.30;32.40;;;-142.21;29.83;112049.66;5052923;28;20182;-74
2022/08/14 10:00:48;;;;;;;2.03;1.93;;;32.50;33.60;;;-142.21;29.53;112049.66;5054015;28;20205;-75
2022/08/14 10:03:32;;;;;;;2.20;2.00;;;32.60;33.20;;;-142.21;28.63;112049.66;5053278;28;20194;-75
2022/08/14 10:06:10;;;;;;;2.10;2.00;;;32.70;32.20;;;-142.21;28.53;112049.66;5052962;28;20189;-75
2022/08/14 10:08:46;;;;;;;2.77;2.43;;;32.90;32.20;;;-142.21;28.63;112049.66;5054433;28;20275;-76
2022/08/14 10:11:18;;;;;;;2.60;2.40;;;33.00;32.00;;;-142.21;28.49;112049.66;5053535;28;20631;-76
2022/08/14 10:13:50;;;;;;;2.53;2.30;;;33.10;32.50;;;-142.21;28.14;112049.66;5033408;28;20227;-75
2022/08/14 10:16:18;;;;;;;2.40;2.20;;;33.30;32.00;;;-142.21;27.75;112049.66;5033630;28;20529;-75
2022/08/14 10:18:50;;;;;;;2.53;2.17;;;33.40;31.50;;;-142.21;27.80;112049.66;5033310;28;20243;-75
2022/08/14 10:21:18;;;;;;;2.60;2.40;;;33.50;31.60;;;-142.21;27.72;112049.66;5033259;28;20246;-76
2022/08/14 10:23:51;;;;;;;2.77;2.47;;;33.60;31.10;;;-142.21;27.80;112049.66;5034787;28;20203;-74
2022/08/14 10:26:21;;;;;;;2.63;2.43;;;33.70;31.10;;;-142.21;27.58;112049.66;5053054;28;20656;-75
2022/08/14 10:28:51;;;;;;;2.60;2.40;;;33.80;30.50;;;-142.21;27.55;112049.66;5052969;28;20685;-76